Time,TemperatureF,DewpointF,PressureIn,WindDirection,WindDirectionDegrees,WindSpeedMPH,WindSpeedGustMPH,Humidity,HourlyPrecipIn,Conditions,Clouds,dailyrainin,SoftwareType,DateUTC
2013-04-14 00:02:00,38.0,37.0,-100.00,North,350,2.0,6.0,97,-99.99,,,-99.99,,2013-04-14 06:02:00,
2013-04-14 00:12:00,37.0,37.0,-100.00,SSE,150,1.0,5.0,97,-99.99,,,-99.99,,2013-04-14 06:12:00,
2013-04-14 00:22:00,38.0,37.0,-100.00,NNW,345,1.0,5.0,97,-99.99,,,-99.99,,2013-04-14 06:22:00,
2013-04-14 00:32:00,38.0,37.0,-100.00,North,0,2.0,7.0,97,-99.99,,,-99.99,,2013-04-14 06:32:00,
2013-04-14 00:42:00,38.0,37.0,-100.00,NE,45,2.0,6.0,97,-99.99,,,-99.99,,2013-04-14 06:42:00,
2013-04-14 00:52:00,38.0,37.0,-100.00,ENE,60,1.0,3.0,97,-99.99,,,-99.99,,2013-04-14 06:52:00,
2013-04-14 01:02:00,38.0,37.0,-100.00,West,280,2.0,4.0,97,-99.99,,,-99.99,,2013-04-14 07:02:00,
2013-04-14 01:12:00,38.0,37.0,-100.00,NE,40,1.0,2.0,97,-99.99,,,-99.99,,2013-04-14 07:12:00,
2013-04-14 01:22:00,38.0,37.0,-100.00,NW,310,0.0,1.0,98,-99.99,,,-99.99,,2013-04-14 07:22:00,
2013-04-14 01:32:00,38.0,37.0,-100.00,NNW,345,2.0,2.0,98,-99.99,,,-99.99,,2013-04-14 07:32:00,
2013-04-14 01:42:00,38.0,37.0,-100.00,NW,320,0.0,1.0,98,-99.99,,,-99.99,,2013-04-14 07:42:00,
2013-04-14 01:52:00,38.0,38.0,-100.00,SSE,155,2.0,2.0,98,-99.99,,,-99.99,,2013-04-14 07:52:00,
2013-04-14 02:02:00,38.0,38.0,-100.00,ESE,110,0.0,3.0,98,-99.99,,,-99.99,,2013-04-14 08:02:00,
2013-04-14 02:12:00,38.0,38.0,-100.00,NNW,330,0.0,2.0,98,-99.99,,,-99.99,,2013-04-14 08:12:00,
2013-04-14 02:22:00,38.0,38.0,-100.00,NNW,345,0.0,2.0,98,-99.99,,,-99.99,,2013-04-14 08:22:00,
2013-04-14 02:32:00,38.0,38.0,-100.00,NNW,345,2.0,4.0,99,-99.99,,,-99.99,,2013-04-14 08:32:00,
2013-04-14 02:42:00,37.0,37.0,-100.00,ENE,70,4.0,7.0,99,-99.99,,,-99.99,,2013-04-14 08:42:00,
2013-04-14 02:52:00,37.0,37.0,-100.00,ENE,70,2.0,7.0,99,-99.99,,,-99.99,,2013-04-14 08:52:00,
2013-04-14 03:02:00,36.0,36.0,-100.00,East,80,1.0,6.0,99,-99.99,,,-99.99,,2013-04-14 09:02:00,
2013-04-14 03:12:00,36.0,36.0,-100.00,SE,125,2.0,5.0,99,-99.99,,,-99.99,,2013-04-14 09:12:00,
2013-04-14 03:22:00,35.0,34.0,-100.00,ENE,75,0.0,4.0,99,-99.99,,,-99.99,,2013-04-14 09:22:00,
2013-04-14 03:32:00,34.0,34.0,-100.00,WNW,285,0.0,2.0,99,-99.99,,,-99.99,,2013-04-14 09:32:00,
2013-04-14 03:42:00,34.0,34.0,-100.00,NNW,330,3.0,4.0,99,-99.99,,,-99.99,,2013-04-14 09:42:00,
2013-04-14 03:53:00,34.0,34.0,-100.00,North,0,1.0,4.0,99,-99.99,,,-99.99,,2013-04-14 09:53:00,
2013-04-14 04:03:00,34.0,34.0,-100.00,SW,230,2.0,4.0,99,-99.99,,,-99.99,,2013-04-14 10:03:00,
2013-04-14 04:12:00,34.0,34.0,-100.00,SSW,210,0.0,3.0,99,-99.99,,,-99.99,,2013-04-14 10:12:00,
2013-04-14 04:22:00,35.0,35.0,-100.00,NW,310,0.0,1.0,99,-99.99,,,-99.99,,2013-04-14 10:22:00,
2013-04-14 04:32:00,35.0,35.0,-100.00,NE,55,0.0,1.0,99,-99.99,,,-99.99,,2013-04-14 10:32:00,
2013-04-14 04:42:00,35.0,35.0,-100.00,West,280,0.0,2.0,99,-99.99,,,-99.99,,2013-04-14 10:42:00,
2013-04-14 04:52:00,34.0,34.0,-100.00,NE,45,1.0,2.0,99,-99.99,,,-99.99,,2013-04-14 10:52:00,
2013-04-14 05:02:00,34.0,34.0,-100.00,WSW,240,0.0,2.0,99,-99.99,,,-99.99,,2013-04-14 11:02:00,
2013-04-14 05:12:00,34.0,34.0,-100.00,North,350,1.0,2.0,99,-99.99,,,-99.99,,2013-04-14 11:12:00,
2013-04-14 05:22:00,33.0,33.0,-100.00,North,10,0.0,2.0,99,-99.99,,,-99.99,,2013-04-14 11:22:00,
2013-04-14 05:32:00,33.0,33.0,-100.00,West,280,0.0,1.0,99,-99.99,,,-99.99,,2013-04-14 11:32:00,
2013-04-14 05:42:00,33.0,33.0,-100.00,West,275,0.0,1.0,99,-99.99,,,-99.99,,2013-04-14 11:42:00,
2013-04-14 05:52:00,33.0,33.0,-100.00,WNW,290,1.0,1.0,99,-99.99,,,-99.99,,2013-04-14 11:52:00,
2013-04-14 06:02:00,33.0,33.0,-100.00,SW,215,0.0,4.0,99,-99.99,,,-99.99,,2013-04-14 12:02:00,
2013-04-14 06:12:00,33.0,33.0,-100.00,NNW,340,2.0,4.0,99,-99.99,,,-99.99,,2013-04-14 12:12:00,
2013-04-14 06:21:00,33.0,33.0,-100.00,North,0,3.0,4.0,99,-99.99,,,-99.99,,2013-04-14 12:21:00,
2013-04-14 06:32:00,32.0,32.0,-100.00,NE,50,0.0,3.0,99,-99.99,,,-99.99,,2013-04-14 12:32:00,
2013-04-14 06:42:00,32.0,32.0,-100.00,North,0,2.0,4.0,99,-99.99,,,-99.99,,2013-04-14 12:42:00,
2013-04-14 06:51:00,32.0,32.0,-100.00,WNW,300,0.0,4.0,99,-99.99,,,-99.99,,2013-04-14 12:51:00,
2013-04-14 07:02:00,31.0,31.0,-100.00,WNW,295,2.0,7.0,99,-99.99,,,-99.99,,2013-04-14 13:02:00,
2013-04-14 07:12:00,30.0,30.0,-100.00,NNW,340,6.0,12.0,99,-99.99,,,-99.99,,2013-04-14 13:12:00,
2013-04-14 07:22:00,30.0,26.0,-100.00,North,5,3.0,17.0,85,-99.99,,,-99.99,,2013-04-14 13:22:00,
2013-04-14 07:32:00,31.0,21.0,-100.00,North,0,4.0,12.0,63,-99.99,,,-99.99,,2013-04-14 13:32:00,
2013-04-14 07:42:00,32.0,18.0,-100.00,WSW,250,1.0,12.0,54,-99.99,,,-99.99,,2013-04-14 13:42:00,
2013-04-14 07:52:00,33.0,16.0,-100.00,East,95,2.0,10.0,49,-99.99,,,-99.99,,2013-04-14 13:52:00,
2013-04-14 08:02:00,33.0,16.0,-100.00,North,0,4.0,17.0,48,-99.99,,,-99.99,,2013-04-14 14:02:00,
2013-04-14 08:12:00,33.0,15.0,-100.00,SE,125,0.0,7.0,47,-99.99,,,-99.99,,2013-04-14 14:12:00,
2013-04-14 08:22:00,33.0,15.0,-100.00,WNW,295,2.0,9.0,46,-99.99,,,-99.99,,2013-04-14 14:22:00,
2013-04-14 08:32:00,35.0,15.0,-100.00,NE,55,2.0,9.0,43,-99.99,,,-99.99,,2013-04-14 14:32:00,
2013-04-14 08:42:00,37.0,16.0,-100.00,SSE,155,1.0,7.0,41,-99.99,,,-99.99,,2013-04-14 14:42:00,
2013-04-14 08:52:00,38.0,16.0,-100.00,SE,145,3.0,7.0,41,-99.99,,,-99.99,,2013-04-14 14:52:00,
2013-04-14 09:02:00,38.0,15.0,-100.00,NE,35,2.0,11.0,38,-99.99,,,-99.99,,2013-04-14 15:02:00,
2013-04-14 09:12:00,39.0,14.0,-100.00,WSW,245,2.0,11.0,36,-99.99,,,-99.99,,2013-04-14 15:12:00,
2013-04-14 09:22:00,39.0,14.0,-100.00,SW,215,4.0,9.0,34,-99.99,,,-99.99,,2013-04-14 15:22:00,
2013-04-14 09:33:00,40.0,13.0,-100.00,South,170,5.0,9.0,33,-99.99,,,-99.99,,2013-04-14 15:33:00,
2013-04-14 09:43:00,40.0,14.0,-100.00,South,190,4.0,10.0,33,-99.99,,,-99.99,,2013-04-14 15:43:00,
2013-04-14 09:52:00,40.0,13.0,-100.00,SSW,205,4.0,11.0,32,-99.99,,,-99.99,,2013-04-14 15:52:00,
2013-04-14 10:03:00,41.0,12.0,-100.00,ESE,120,2.0,12.0,30,-99.99,,,-99.99,,2013-04-14 16:03:00,
2013-04-14 10:13:00,41.0,12.0,-100.00,SW,215,6.0,12.0,30,-99.99,,,-99.99,,2013-04-14 16:13:00,
2013-04-14 10:22:00,41.0,12.0,-100.00,East,100,2.0,17.0,29,-99.99,,,-99.99,,2013-04-14 16:22:00,
2013-04-14 10:32:00,41.0,11.0,-100.00,SW,225,6.0,14.0,28,-99.99,,,-99.99,,2013-04-14 16:32:00,
2013-04-14 10:43:00,42.0,12.0,-100.00,South,190,6.0,16.0,28,-99.99,,,-99.99,,2013-04-14 16:43:00,
2013-04-14 10:52:00,42.0,12.0,-100.00,SW,225,9.0,19.0,28,-99.99,,,-99.99,,2013-04-14 16:52:00,
2013-04-14 11:02:00,42.0,11.0,-100.00,SSW,210,7.0,14.0,27,-99.99,,,-99.99,,2013-04-14 17:02:00,
2013-04-14 11:12:00,41.0,9.0,-100.00,South,170,7.0,14.0,26,-99.99,,,-99.99,,2013-04-14 17:12:00,
2013-04-14 11:22:00,42.0,10.0,-100.00,SE,145,6.0,12.0,26,-99.99,,,-99.99,,2013-04-14 17:22:00,
2013-04-14 11:32:00,43.0,11.0,-100.00,SSW,200,4.0,11.0,26,-99.99,,,-99.99,,2013-04-14 17:32:00,
2013-04-14 11:42:00,44.0,10.0,-100.00,SW,220,7.0,12.0,24,-99.99,,,-99.99,,2013-04-14 17:42:00,
2013-04-14 11:52:00,44.0,10.0,-100.00,WSW,240,4.0,16.0,24,-99.99,,,-99.99,,2013-04-14 17:52:00,
2013-04-14 12:02:00,44.0,10.0,-100.00,SE,140,4.0,16.0,24,-99.99,,,-99.99,,2013-04-14 18:02:00,
2013-04-14 12:12:00,44.0,10.0,-100.00,South,170,6.0,17.0,24,-99.99,,,-99.99,,2013-04-14 18:12:00,
2013-04-14 12:22:00,44.0,9.0,-100.00,South,190,8.0,21.0,23,-99.99,,,-99.99,,2013-04-14 18:22:00,
2013-04-14 12:32:00,44.0,9.0,-100.00,SSW,205,4.0,16.0,23,-99.99,,,-99.99,,2013-04-14 18:32:00,
2013-04-14 12:42:00,44.0,9.0,-100.00,SW,230,11.0,19.0,23,-99.99,,,-99.99,,2013-04-14 18:42:00,
2013-04-14 12:52:00,44.0,8.0,-100.00,SE,145,9.0,16.0,22,-99.99,,,-99.99,,2013-04-14 18:52:00,
2013-04-14 13:02:00,44.0,7.0,-100.00,SSW,205,11.0,17.0,20,-99.99,,,-99.99,,2013-04-14 19:02:00,
2013-04-14 13:12:00,44.0,7.0,-100.00,WSW,240,4.0,17.0,20,-99.99,,,-99.99,,2013-04-14 19:12:00,
2013-04-14 13:22:00,45.0,7.0,-100.00,South,190,4.0,14.0,20,-99.99,,,-99.99,,2013-04-14 19:22:00,
2013-04-14 13:32:00,45.0,8.0,-100.00,SSW,195,11.0,20.0,21,-99.99,,,-99.99,,2013-04-14 19:32:00,
2013-04-14 13:42:00,45.0,8.0,-100.00,SW,230,7.0,17.0,22,-99.99,,,-99.99,,2013-04-14 19:42:00,
2013-04-14 13:52:00,45.0,9.0,-100.00,SSE,165,8.0,19.0,22,-99.99,,,-99.99,,2013-04-14 19:52:00,
2013-04-14 14:02:00,46.0,10.0,-100.00,SW,230,6.0,17.0,22,-99.99,,,-99.99,,2013-04-14 20:02:00,
2013-04-14 14:12:00,45.0,9.0,-100.00,SW,220,13.0,26.0,22,-99.99,,,-99.99,,2013-04-14 20:12:00,
2013-04-14 14:22:00,45.0,9.0,-100.00,SW,225,16.0,24.0,22,-99.99,,,-99.99,,2013-04-14 20:22:00,
2013-04-14 14:32:00,45.0,10.0,-100.00,SW,215,14.0,23.0,22,-99.99,,,-99.99,,2013-04-14 20:32:00,
2013-04-14 14:42:00,45.0,10.0,-100.00,SSW,210,4.0,21.0,22,-99.99,,,-99.99,,2013-04-14 20:42:00,
2013-04-14 14:52:00,46.0,10.0,-100.00,SW,220,12.0,20.0,22,-99.99,,,-99.99,,2013-04-14 20:52:00,
2013-04-14 15:02:00,47.0,10.0,-100.00,SW,225,11.0,21.0,22,-99.99,,,-99.99,,2013-04-14 21:02:00,
2013-04-14 15:12:00,47.0,10.0,-100.00,SSW,210,8.0,21.0,21,-99.99,,,-99.99,,2013-04-14 21:12:00,
2013-04-14 15:22:00,47.0,9.0,-100.00,SW,220,6.0,21.0,20,-99.99,,,-99.99,,2013-04-14 21:22:00,
2013-04-14 15:32:00,49.0,10.0,-100.00,SSW,205,5.0,13.0,20,-99.99,,,-99.99,,2013-04-14 21:32:00,
2013-04-14 15:43:00,49.0,9.0,-100.00,SW,225,9.0,22.0,19,-99.99,,,-99.99,,2013-04-14 21:43:00,
2013-04-14 15:53:00,49.0,8.0,-100.00,South,190,7.0,18.0,18,-99.99,,,-99.99,,2013-04-14 21:53:00,
2013-04-14 16:02:00,50.0,8.0,-100.00,SW,230,7.0,20.0,18,-99.99,,,-99.99,,2013-04-14 22:02:00,
2013-04-14 16:12:00,49.0,7.0,-100.00,South,180,10.0,24.0,17,-99.99,,,-99.99,,2013-04-14 22:12:00,
2013-04-14 16:22:00,49.0,7.0,-100.00,SW,220,12.0,19.0,17,-99.99,,,-99.99,,2013-04-14 22:22:00,
2013-04-14 16:32:00,49.0,6.0,-100.00,SSW,195,11.0,19.0,17,-99.99,,,-99.99,,2013-04-14 22:32:00,
2013-04-14 16:43:00,49.0,6.0,-100.00,SSW,195,11.0,19.0,17,-99.99,,,-99.99,,2013-04-14 22:43:00,
2013-04-14 16:52:00,48.0,7.0,-100.00,SSW,195,11.0,21.0,18,-99.99,,,-99.99,,2013-04-14 22:52:00,
2013-04-14 17:02:00,49.0,8.0,-100.00,SSW,195,6.0,20.0,18,-99.99,,,-99.99,,2013-04-14 23:02:00,
2013-04-14 17:12:00,47.0,8.0,-100.00,SW,220,3.0,22.0,19,-99.99,,,-99.99,,2013-04-14 23:12:00,
2013-04-14 17:22:00,47.0,8.0,-100.00,SW,215,10.0,15.0,20,-99.99,,,-99.99,,2013-04-14 23:22:00,
2013-04-14 17:32:00,46.0,8.0,-100.00,SW,225,4.0,17.0,20,-99.99,,,-99.99,,2013-04-14 23:32:00,
2013-04-14 17:42:00,46.0,8.0,-100.00,SW,225,4.0,17.0,20,-99.99,,,-99.99,,2013-04-14 23:42:00,
2013-04-14 17:52:00,46.0,8.0,-100.00,SW,215,4.0,13.0,20,-99.99,,,-99.99,,2013-04-14 23:52:00,
2013-04-14 18:02:00,46.0,9.0,-100.00,SSE,160,3.0,13.0,21,-99.99,,,-99.99,,2013-04-15 00:02:00,
2013-04-14 18:12:00,46.0,9.0,-100.00,SW,215,6.0,14.0,21,-99.99,,,-99.99,,2013-04-15 00:12:00,
2013-04-14 18:22:00,46.0,9.0,-100.00,SSW,205,4.0,8.0,22,-99.99,,,-99.99,,2013-04-15 00:22:00,
2013-04-14 18:32:00,46.0,9.0,-100.00,SSE,160,6.0,9.0,22,-99.99,,,-99.99,,2013-04-15 00:32:00,
2013-04-14 18:42:00,45.0,10.0,-100.00,SW,215,5.0,9.0,22,-99.99,,,-99.99,,2013-04-15 00:42:00,
2013-04-14 18:52:00,45.0,10.0,-100.00,SSW,210,4.0,10.0,23,-99.99,,,-99.99,,2013-04-15 00:52:00,
2013-04-14 19:02:00,44.0,10.0,-100.00,SE,125,0.0,2.0,24,-99.99,,,-99.99,,2013-04-15 01:02:00,
2013-04-14 19:12:00,44.0,11.0,-100.00,ESE,120,2.0,4.0,26,-99.99,,,-99.99,,2013-04-15 01:12:00,
2013-04-14 19:22:00,44.0,11.0,-100.00,SSW,195,2.0,4.0,26,-99.99,,,-99.99,,2013-04-15 01:22:00,
2013-04-14 19:32:00,44.0,11.0,-100.00,SE,135,1.0,2.0,26,-99.99,,,-99.99,,2013-04-15 01:32:00,
2013-04-14 19:42:00,43.0,13.0,-100.00,North,0,1.0,2.0,28,-99.99,,,-99.99,,2013-04-15 01:42:00,
2013-04-14 19:52:00,43.0,14.0,-100.00,NNW,340,2.0,3.0,30,-99.99,,,-99.99,,2013-04-15 01:52:00,
2013-04-14 20:02:00,42.0,15.0,-100.00,NNW,345,3.0,5.0,32,-99.99,,,-99.99,,2013-04-15 02:02:00,
2013-04-14 20:12:00,42.0,15.0,-100.00,NNW,330,1.0,4.0,34,-99.99,,,-99.99,,2013-04-15 02:12:00,
2013-04-14 20:22:00,41.0,16.0,-100.00,SW,215,0.0,2.0,35,-99.99,,,-99.99,,2013-04-15 02:22:00,
2013-04-14 20:32:00,41.0,17.0,-100.00,WNW,300,1.0,2.0,37,-99.99,,,-99.99,,2013-04-15 02:32:00,
2013-04-14 20:42:00,40.0,18.0,-100.00,WNW,300,1.0,1.0,39,-99.99,,,-99.99,,2013-04-15 02:42:00,
2013-04-14 20:52:00,40.0,18.0,-100.00,NW,325,0.0,1.0,40,-99.99,,,-99.99,,2013-04-15 02:52:00,
2013-04-14 21:02:00,40.0,18.0,-100.00,NW,325,1.0,2.0,41,-99.99,,,-99.99,,2013-04-15 03:02:00,
2013-04-14 21:12:00,40.0,19.0,-100.00,NNW,335,1.0,2.0,42,-99.99,,,-99.99,,2013-04-15 03:12:00,
2013-04-14 21:22:00,39.0,19.0,-100.00,NW,315,1.0,2.0,43,-99.99,,,-99.99,,2013-04-15 03:22:00,
2013-04-14 21:32:00,39.0,19.0,-100.00,WNW,300,0.0,3.0,43,-99.99,,,-99.99,,2013-04-15 03:32:00,
2013-04-14 21:43:00,39.0,20.0,-100.00,WNW,290,0.0,2.0,45,-99.99,,,-99.99,,2013-04-15 03:43:00,
2013-04-14 21:54:00,39.0,21.0,-100.00,NNW,330,0.0,2.0,47,-99.99,,,-99.99,,2013-04-15 03:54:00,
2013-04-14 22:02:00,39.0,21.0,-100.00,NNW,330,0.0,2.0,47,-99.99,,,-99.99,,2013-04-15 04:02:00,
2013-04-14 22:12:00,39.0,21.0,-100.00,WNW,285,0.0,2.0,48,-99.99,,,-99.99,,2013-04-15 04:12:00,
2013-04-14 22:22:00,39.0,22.0,-100.00,WNW,290,1.0,2.0,49,-99.99,,,-99.99,,2013-04-15 04:22:00,
2013-04-14 22:32:00,39.0,22.0,-100.00,NW,325,3.0,4.0,51,-99.99,,,-99.99,,2013-04-15 04:32:00,
2013-04-14 22:42:00,39.0,22.0,-100.00,NW,305,1.0,5.0,50,-99.99,,,-99.99,,2013-04-15 04:42:00,
2013-04-14 22:52:00,39.0,22.0,-100.00,North,355,1.0,3.0,50,-99.99,,,-99.99,,2013-04-15 04:52:00,
2013-04-14 23:02:00,39.0,22.0,-100.00,WNW,290,0.0,2.0,50,-99.99,,,-99.99,,2013-04-15 05:02:00,
2013-04-14 23:12:00,39.0,22.0,-100.00,NNW,335,2.0,4.0,51,-99.99,,,-99.99,,2013-04-15 05:12:00,
2013-04-14 23:22:00,38.0,22.0,-100.00,NE,35,2.0,4.0,51,-99.99,,,-99.99,,2013-04-15 05:22:00,
2013-04-14 23:32:00,38.0,22.0,-100.00,NNE,15,1.0,2.0,51,-99.99,,,-99.99,,2013-04-15 05:32:00,
2013-04-14 23:42:00,38.0,22.0,-100.00,North,350,1.0,2.0,52,-99.99,,,-99.99,,2013-04-15 05:42:00,
2013-04-14 23:52:00,38.0,22.0,-100.00,NNW,340,2.0,4.0,52,-99.99,,,-99.99,,2013-04-15 05:52:00,